Time;durP1;ratioP1;P1;durP2;ratioP2;P2;SDS_P1;SDS_P2;PMS_P1;PMS_P2;Temp;Humidity;BMP_temperature;BMP_pressure;BME280_temperature;BME280_humidity;BME280_pressure;Samples;Min_cycle;Max_cycle;Signal;HPM_P1;HPM_P2
2023/02/13 00:00:32;;;;;;;7.82;5.97;;;;;;;16.59;63.89;103880.59;6283748;22;19999;-92
2023/02/13 00:02:58;;;;;;;7.25;5.75;;;;;;;16.63;63.91;103879.00;6283387;22;20057;-94
2023/02/13 00:05:23;;;;;;;7.43;5.88;;;;;;;16.64;63.79;103873.00;6258968;22;20007;-91
2023/02/13 00:07:49;;;;;;;9.13;5.97;;;;;;;16.64;63.80;103879.06;6259226;22;20031;-93
2023/02/13 00:10:15;;;;;;;7.07;5.90;;;;;;;16.64;63.20;103873.00;6233635;22;20067;-92
2023/02/13 00:12:40;;;;;;;7.32;6.10;;;;;;;16.64;63.25;103879.06;6285795;22;20014;-94
2023/02/13 00:15:07;;;;;;;9.32;6.22;;;;;;;16.67;62.70;103873.13;6257392;22;20093;-90
2023/02/13 00:17:35;;;;;;;7.78;5.57;;;;;;;16.69;62.48;103873.19;6234902;22;20464;-94
2023/02/13 00:20:05;;;;;;;7.90;5.60;;;;;;;16.68;62.75;103872.31;6239510;22;20033;-92
2023/02/13 00:22:34;;;;;;;6.47;5.63;;;;;;;16.70;62.32;103878.47;6276970;22;20022;-93
2023/02/13 00:25:03;;;;;;;7.57;5.90;;;;;;;16.69;62.90;103873.19;6296262;22;20035;-95
2023/02/13 00:27:28;;;;;;;7.50;6.35;;;;;;;16.69;63.05;103867.97;6291822;22;20022;-89
2023/02/13 00:29:54;;;;;;;7.85;6.13;;;;;;;16.71;62.42;103863.75;6282962;22;20027;-89
2023/02/13 00:32:19;;;;;;;8.63;5.78;;;;;;;16.72;62.39;103865.50;6258164;22;20007;-90
2023/02/13 00:34:44;;;;;;;7.20;5.85;;;;;;;16.69;62.65;103858.47;6231826;22;20332;-91
2023/02/13 00:37:10;;;;;;;6.57;5.55;;;;;;;16.72;62.33;103855.09;6282538;22;20335;-89
2023/02/13 00:39:35;;;;;;;8.02;5.90;;;;;;;16.72;62.25;103855.09;6283030;22;20018;-90
2023/02/13 00:42:01;;;;;;;6.45;5.65;;;;;;;16.70;62.62;103856.75;6231800;22;20019;-89
2023/02/13 00:44:26;;;;;;;7.00;5.85;;;;;;;16.70;62.38;103857.66;6231807;22;20034;-89
2023/02/13 00:46:51;;;;;;;6.38;5.28;;;;;;;16.71;62.31;103859.41;6283086;22;20007;-88
2023/02/13 00:49:20;;;;;;;6.15;5.53;;;;;;;16.71;62.25;103866.34;6233056;22;20015;-89
2023/02/13 00:51:45;;;;;;;6.28;5.60;;;;;;;16.70;62.42;103854.16;6234631;22;20007;-88
2023/02/13 00:54:14;;;;;;;6.45;5.57;;;;;;;16.71;62.32;103858.53;6233927;22;20493;-89
2023/02/13 00:56:39;;;;;;;6.65;5.65;;;;;;;16.72;61.92;103865.50;6233534;22;20007;-88
2023/02/13 00:59:05;;;;;;;7.65;5.85;;;;;;;16.72;62.12;103857.69;6284846;22;20006;-88
2023/02/13 01:01:30;;;;;;;7.22;5.28;;;;;;;16.73;62.03;103856.91;6259253;22;20097;-89
2023/02/13 01:03:57;;;;;;;7.47;5.50;;;;;;;16.73;61.83;103859.50;6233507;22;20435;-89
2023/02/13 01:06:22;;;;;;;6.72;5.60;;;;;;;16.74;61.54;103851.72;6312706;22;20030;-90
2023/02/13 01:08:47;;;;;;;6.93;5.97;;;;;;;16.73;61.40;103849.09;6234086;22;20305;-90
2023/02/13 01:11:13;;;;;;;7.65;5.35;;;;;;;16.73;61.50;103846.50;6234042;22;20014;-89
2023/02/13 01:13:38;;;;;;;7.63;5.53;;;;;;;16.73;61.70;103839.56;6259470;22;20007;-90
2023/02/13 01:16:04;;;;;;;10.40;5.78;;;;;;;16.74;61.39;103843.06;6284530;22;20003;-91
2023/02/13 01:18:29;;;;;;;9.30;5.97;;;;;;;16.74;61.33;103840.44;6258516;22;20428;-90
2023/02/13 01:21:03;;;;;;;7.35;5.63;;;;;;;16.75;61.44;103842.25;6233858;22;20347;-89
2023/02/13 01:23:31;;;;;;;7.25;5.55;;;;;;;16.76;61.38;103841.41;6284581;22;20458;-89
2023/02/13 01:25:56;;;;;;;6.57;5.20;;;;;;;16.76;61.42;103844.88;6286143;22;20010;-88
2023/02/13 01:28:22;;;;;;;5.90;5.20;;;;;;;16.77;61.26;103846.69;6253099;22;19991;-89
2023/02/13 01:30:57;;;;;;;6.38;5.40;;;;;;;16.77;61.26;103845.81;6256638;22;20021;-88
2023/02/13 01:33:24;;;;;;;6.20;5.32;;;;;;;16.77;60.99;103835.41;6305015;22;20003;-87
2023/02/13 01:35:50;;;;;;;6.72;6.03;;;;;;;16.76;61.15;103850.09;6272137;22;20030;-89
2023/02/13 01:38:16;;;;;;;6.82;5.57;;;;;;;16.76;61.23;103842.28;6260352;22;20043;-88
2023/02/13 01:40:50;;;;;;;6.50;5.65;;;;;;;16.76;60.91;103842.28;6259453;22;20011;-89
2023/02/13 01:43:16;;;;;;;5.88;5.18;;;;;;;16.77;60.90;103843.19;6284811;22;20006;-88
2023/02/13 01:45:44;;;;;;;6.97;5.68;;;;;;;16.77;60.90;103849.28;6259545;22;20003;-88
2023/02/13 01:48:19;;;;;;;6.25;5.47;;;;;;;16.78;61.02;103847.56;6284959;22;20033;-89
2023/02/13 01:50:59;;;;;;;7.00;6.00;;;;;;;16.78;60.63;103844.97;6286081;22;20384;-94
2023/02/13 01:53:32;;;;;;;6.65;5.93;;;;;;;16.79;60.62;103846.75;6286703;22;20003;-94
2023/02/13 01:56:16;;;;;;;7.68;6.22;;;;;;;16.79;60.39;103844.16;6285882;22;20030;-94
2023/02/13 01:58:47;;;;;;;6.35;5.53;;;;;;;16.81;60.61;103848.63;6285916;22;20006;-93
2023/02/13 02:01:13;;;;;;;7.15;5.68;;;;;;;16.78;60.70;103851.03;6285156;22;20007;-93
2023/02/13 02:03:50;;;;;;;5.90;5.30;;;;;;;16.80;60.29;103843.34;6285176;22;19999;-92
2023/02/13 02:06:26;;;;;;;6.30;5.28;;;;;;;16.79;60.73;103846.75;6285833;22;20003;-93
2023/02/13 02:08:55;;;;;;;7.78;5.63;;;;;;;16.80;60.43;103849.44;6285696;22;20007;-92
2023/02/13 02:11:35;;;;;;;6.20;5.60;;;;;;;16.80;60.49;103844.22;6284991;22;20053;-93
2023/02/13 02:14:01;;;;;;;6.03;5.43;;;;;;;16.79;60.44;103839.84;6285296;22;20086;-93
2023/02/13 02:16:28;;;;;;;6.15;5.53;;;;;;;16.78;60.72;103832.84;6287946;22;20011;-91
2023/02/13 02:18:54;;;;;;;6.93;5.43;;;;;;;16.79;60.42;103837.22;6289065;22;20003;-91
2023/02/13 02:21:45;;;;;;;7.32;6.07;;;;;;;16.78;60.51;103827.63;6262994;22;20014;-93
2023/02/13 02:24:29;;;;;;;6.20;5.55;;;;;;;16.79;60.42;103834.63;6285425;22;20100;-92
2023/02/13 02:27:28;;;;;;;6.25;5.65;;;;;;;16.80;60.31;103831.22;6284923;22;20335;-92
2023/02/13 02:30:08;;;;;;;7.18;5.72;;;;;;;16.80;60.01;103825.16;6284817;22;20003;-93
2023/02/13 02:32:55;;;;;;;5.90;5.30;;;;;;;16.79;60.12;103831.16;6284626;22;20011;-92
2023/02/13 02:35:23;;;;;;;5.72;5.13;;;;;;;16.78;60.35;103825.03;6284697;22;20007;-93
2023/02/13 02:37:52;;;;;;;6.00;5.10;;;;;;;16.78;60.08;103818.97;6284240;22;20053;-92
2023/02/13 02:40:30;;;;;;;5.97;5.32;;;;;;;16.77;60.10;103823.28;6284705;22;20085;-94
2023/02/13 02:43:27;;;;;;;5.70;5.20;;;;;;;16.78;60.49;103824.16;6284487;22;20442;-91
2023/02/13 02:46:13;;;;;;;7.13;5.97;;;;;;;16.77;60.41;103819.78;6284212;22;20030;-91
2023/02/13 02:51:55;;;;;;;5.78;5.18;;;;;;;16.78;60.09;103824.16;6311650;22;20070;-92
2023/02/13 02:57:23;;;;;;;6.43;5.20;;;;;;;16.78;60.04;103818.97;6311667;22;20082;-93
2023/02/13 03:08:09;;;;;;;6.15;5.25;;;;;;;16.79;60.08;103819.03;6312305;22;20344;-94
2023/02/13 03:13:42;;;;;;;6.95;5.55;;;;;;;16.80;59.65;103823.41;6289162;22;20018;-95
2023/02/13 03:25:17;;;;;;;6.20;5.40;;;;;;;16.80;59.67;103817.34;6312209;22;20041;-92
2023/02/13 03:30:56;;;;;;;5.72;5.03;;;;;;;16.78;59.97;103803.34;6312595;22;20014;-93
2023/02/13 03:33:39;;;;;;;5.88;4.85;;;;;;;16.79;59.80;103807.75;6285245;22;20035;-92
2023/02/13 03:39:10;;;;;;;5.07;4.57;;;;;;;16.81;59.62;103800.91;6313384;22;20065;-92
2023/02/13 03:41:50;;;;;;;5.32;4.82;;;;;;;16.82;59.72;103807.88;6285710;22;20001;-95
2023/02/13 03:44:27;;;;;;;5.20;4.68;;;;;;;16.82;59.74;103803.56;6285493;22;20011;-93
2023/02/13 03:46:56;;;;;;;5.05;4.43;;;;;;;16.84;59.95;103801.03;6290966;22;20109;-92
2023/02/13 03:52:28;;;;;;;5.03;4.53;;;;;;;16.85;59.82;103798.50;6312838;22;20014;-92
2023/02/13 04:00:39;;;;;;;4.43;4.03;;;;;;;16.88;59.17;103802.94;6306445;22;20062;-92
2023/02/13 04:03:49;;;;;;;4.82;4.10;;;;;;;16.89;59.38;103803.81;6307760;22;20011;-91
2023/02/13 04:06:20;;;;;;;4.43;4.00;;;;;;;16.92;59.84;103801.34;6283155;22;20016;-91
2023/02/13 04:08:46;;;;;;;4.40;4.00;;;;;;;16.92;59.47;103802.25;6283324;22;20063;-92
2023/02/13 04:11:24;;;;;;;4.75;4.05;;;;;;;16.93;59.42;103793.59;6270869;22;20018;-92
2023/02/13 04:13:55;;;;;;;4.20;3.80;;;;;;;16.93;59.29;103793.59;6286684;22;20010;-91
2023/02/13 04:16:28;;;;;;;5.32;4.10;;;;;;;16.94;59.37;103790.19;6288651;22;20010;-92
2023/02/13 04:18:55;;;;;;;6.40;4.15;;;;;;;16.93;59.37;103782.31;6285817;22;20078;-92
2023/02/13 04:21:21;;;;;;;4.78;4.28;;;;;;;16.93;59.50;103783.19;6284907;22;19999;-91
2023/02/13 04:23:47;;;;;;;4.88;4.05;;;;;;;16.93;59.45;103791.00;6233889;22;20038;-93
2023/02/13 04:26:17;;;;;;;4.70;4.00;;;;;;;16.92;59.31;103785.72;6260439;22;20010;-94
2023/02/13 04:28:42;;;;;;;4.55;4.00;;;;;;;16.91;59.60;103790.03;6287350;22;20002;-92
2023/02/13 04:31:07;;;;;;;6.28;4.20;;;;;;;16.91;59.60;103786.56;6234189;22;20014;-92
2023/02/13 04:33:33;;;;;;;4.43;3.95;;;;;;;16.91;59.47;103784.84;6284207;22;20003;-91
2023/02/13 04:35:58;;;;;;;5.38;4.15;;;;;;;16.91;59.63;103789.16;6284428;22;20031;-92
2023/02/13 04:38:24;;;;;;;4.68;4.15;;;;;;;16.90;59.42;103788.28;6234127;22;20163;-93
2023/02/13 04:40:49;;;;;;;4.65;4.20;;;;;;;16.88;59.14;103789.06;6258461;22;20014;-91
2023/02/13 04:43:15;;;;;;;5.57;4.30;;;;;;;16.91;59.02;103790.03;6258622;22;20053;-94
2023/02/13 04:45:40;;;;;;;6.20;4.72;;;;;;;16.92;59.34;103789.25;6234520;22;20084;-93
2023/02/13 04:48:05;;;;;;;5.72;4.60;;;;;;;16.88;59.42;103782.13;6259376;22;20039;-93
2023/02/13 04:50:31;;;;;;;5.30;4.30;;;;;;;16.88;59.46;103787.34;6285315;22;20011;-93
2023/02/13 04:52:57;;;;;;;4.72;4.22;;;;;;;16.88;59.50;103782.13;6258670;22;20011;-93
2023/02/13 04:55:24;;;;;;;5.07;4.43;;;;;;;16.88;59.41;103783.84;6258281;22;20003;-93
2023/02/13 04:57:56;;;;;;;4.78;4.28;;;;;;;16.86;59.43;103783.78;6258142;22;20018;-92
2023/02/13 05:00:23;;;;;;;4.90;4.40;;;;;;;16.87;59.36;103782.94;6258179;22;20008;-92
2023/02/13 05:02:49;;;;;;;4.97;4.43;;;;;;;16.87;59.10;103780.34;6258328;22;20063;-91
2023/02/13 05:05:15;;;;;;;4.93;4.32;;;;;;;16.89;60.09;103777.81;6257961;22;20026;-92
2023/02/13 05:07:41;;;;;;;4.63;4.15;;;;;;;16.90;59.58;103769.16;6232819;22;20014;-92
2023/02/13 05:10:07;;;;;;;4.18;3.78;;;;;;;16.91;59.32;103773.56;6285600;22;20007;-92
2023/02/13 05:12:33;;;;;;;4.50;4.10;;;;;;;16.89;59.65;103768.28;6263381;22;20011;-95
2023/02/13 05:14:58;;;;;;;5.85;4.40;;;;;;;16.91;59.41;103774.44;6233284;22;20010;-94
2023/02/13 05:17:24;;;;;;;5.03;4.53;;;;;;;16.92;59.17;103770.13;6259063;22;20011;-93
2023/02/13 05:19:49;;;;;;;5.22;4.18;;;;;;;16.92;59.20;103765.81;6232808;22;20033;-92
2023/02/13 05:24:58;;;;;;;5.78;3.70;;;;;;;16.95;58.85;103768.53;6265598;22;20038;-92
2023/02/13 05:27:24;;;;;;;5.22;3.97;;;;;;;16.96;59.17;103770.34;6257561;22;20011;-93
2023/02/13 05:29:49;;;;;;;4.35;3.95;;;;;;;16.95;59.01;103773.75;6232642;22;20003;-91
2023/02/13 05:32:15;;;;;;;5.05;4.28;;;;;;;16.96;58.97;103775.53;6258601;22;20011;-91
2023/02/13 05:34:40;;;;;;;4.25;3.72;;;;;;;16.99;58.94;103774.75;6283803;22;20022;-92
2023/02/13 05:37:06;;;;;;;4.72;3.97;;;;;;;16.98;59.07;103770.38;6259632;22;20023;-91
2023/02/13 05:39:31;;;;;;;6.28;4.13;;;;;;;16.99;58.84;103772.16;6259382;22;20079;-93
2023/02/13 05:41:57;;;;;;;4.45;3.63;;;;;;;16.99;59.35;103774.75;6235996;22;20007;-93
2023/02/13 05:44:22;;;;;;;4.30;3.88;;;;;;;17.00;58.75;103774.81;6262889;22;20007;-93
2023/02/13 05:46:48;;;;;;;4.47;3.63;;;;;;;17.00;58.95;103780.00;6259884;22;19999;-91
2023/02/13 05:49:14;;;;;;;4.32;3.90;;;;;;;17.01;59.01;103775.72;6259633;22;20010;-91
2023/02/13 05:51:40;;;;;;;4.13;3.72;;;;;;;17.02;58.77;103777.47;6260140;22;20015;-93
2023/02/13 05:54:07;;;;;;;4.78;3.88;;;;;;;17.02;58.99;103777.47;6236657;22;20064;-91
2023/02/13 05:56:32;;;;;;;4.57;3.85;;;;;;;17.02;58.97;103769.66;6285521;22;20015;-91
2023/02/13 05:58:58;;;;;;;12.05;3.92;;;;;;;17.03;58.78;103767.13;6260267;22;20094;-92
2023/02/13 06:01:24;;;;;;;3.83;3.30;;;;;;;17.05;58.30;103775.88;6259062;22;20007;-92
2023/02/13 06:03:49;;;;;;;4.20;3.55;;;;;;;17.04;58.43;103779.31;6284429;22;20011;-90
2023/02/13 06:06:16;;;;;;;4.93;3.50;;;;;;;17.03;58.45;103769.72;6285052;22;20087;-91
2023/02/13 06:08:42;;;;;;;5.93;3.38;;;;;;;17.04;58.42;103773.22;6260280;22;20011;-93
2023/02/13 06:11:08;;;;;;;3.78;3.38;;;;;;;17.04;58.88;103763.69;6259719;22;20061;-90
2023/02/13 06:13:33;;;;;;;4.35;3.80;;;;;;;17.05;58.27;103765.47;6286302;22;20030;-91
2023/02/13 06:15:59;;;;;;;4.63;3.75;;;;;;;17.08;58.60;103761.22;6262503;22;20482;-89
2023/02/13 06:18:24;;;;;;;4.32;3.15;;;;;;;17.09;58.55;103765.59;6259780;22;20022;-88
2023/02/13 06:20:50;;;;;;;5.22;3.20;;;;;;;17.18;58.15;103769.44;6233977;22;20042;-87
2023/02/13 06:23:15;;;;;;;10.98;3.70;;;;;;;17.17;58.25;103765.06;6258976;22;20011;-91
2023/02/13 06:25:42;;;;;;;6.13;3.38;;;;;;;17.20;57.90;103772.09;6259219;22;20037;-91
2023/02/13 06:28:08;;;;;;;11.95;3.45;;;;;;;17.20;58.12;103764.28;6260240;22;20010;-90
2023/02/13 06:30:34;;;;;;;6.07;3.33;;;;;;;17.19;58.06;103766.00;6238621;22;20339;-93
2023/02/13 06:32:59;;;;;;;7.95;3.30;;;;;;;17.20;58.02;103769.50;6292743;22;20011;-93
2023/02/13 06:35:25;;;;;;;3.88;3.20;;;;;;;17.18;58.34;103769.44;6239913;22;20009;-91
2023/02/13 06:37:51;;;;;;;13.18;3.25;;;;;;;17.18;58.58;103764.25;6240016;22;20070;-89
2023/02/13 06:40:17;;;;;;;5.35;3.38;;;;;;;17.17;58.62;103759.84;6236101;22;20011;-88
2023/02/13 06:42:44;;;;;;;7.22;3.55;;;;;;;17.18;58.25;103760.72;6240598;22;20011;-88
2023/02/13 06:45:14;;;;;;;18.58;7.40;;;;;;;17.22;58.05;103762.63;6268457;22;20055;-88
2023/02/13 06:47:41;;;;;;;17.40;5.35;;;;;;;17.25;58.08;103765.38;6266716;22;20011;-85
2023/02/13 06:50:07;;;;;;;12.27;5.38;;;;;;;17.28;58.24;103770.69;6271111;22;20306;-89
2023/02/13 06:52:33;;;;;;;13.45;5.20;;;;;;;17.25;58.45;103771.44;6261286;22;20009;-91
2023/02/13 06:54:59;;;;;;;12.43;5.30;;;;;;;17.22;58.66;103773.03;6209396;22;20082;-91
2023/02/13 06:57:25;;;;;;;15.98;4.75;;;;;;;17.20;58.55;103770.41;6204477;22;20026;-91
2023/02/13 06:59:51;;;;;;;8.02;4.57;;;;;;;17.19;59.11;103771.22;6204916;22;20018;-92
2023/02/13 07:02:16;;;;;;;8.35;4.30;;;;;;;17.19;58.72;103772.94;6228830;22;20082;-91
2023/02/13 07:04:42;;;;;;;13.32;4.57;;;;;;;17.18;58.78;103774.66;6228019;22;20030;-92
2023/02/13 07:07:10;;;;;;;8.05;4.45;;;;;;;17.19;58.96;103772.94;6253200;22;20000;-93
2023/02/13 07:09:35;;;;;;;10.75;4.43;;;;;;;17.18;58.56;103777.25;6204295;22;20104;-93
2023/02/13 07:12:03;;;;;;;7.35;4.22;;;;;;;17.18;58.86;103785.06;6203325;22;20440;-91
2023/02/13 07:14:28;;;;;;;5.68;3.90;;;;;;;17.18;58.66;103787.66;6253559;22;20004;-91
2023/02/13 07:16:53;;;;;;;7.15;4.43;;;;;;;17.20;58.19;103793.81;6203362;22;20012;-87
2023/02/13 07:19:19;;;;;;;8.52;4.28;;;;;;;17.24;57.97;103792.22;6202507;22;20011;-87
2023/02/13 07:21:44;;;;;;;7.13;4.40;;;;;;;17.25;57.72;103791.41;6227646;22;20402;-88
2023/02/13 07:24:10;;;;;;;9.32;4.15;;;;;;;17.25;57.75;103796.59;6202243;22;20023;-86
2023/02/13 07:26:35;;;;;;;6.05;4.05;;;;;;;17.27;57.43;103795.81;6227077;22;20000;-88
2023/02/13 07:29:04;;;;;;;6.40;4.13;;;;;;;17.29;57.29;103803.69;6227557;22;20093;-88
2023/02/13 07:31:34;;;;;;;8.68;3.65;;;;;;;17.31;57.45;103795.94;6228342;22;20012;-87
2023/02/13 07:33:59;;;;;;;6.50;3.83;;;;;;;17.32;57.39;103792.50;6228403;22;20011;-88
2023/02/13 07:36:26;;;;;;;6.95;3.60;;;;;;;17.32;57.34;103797.72;6237763;22;20090;-89
2023/02/13 07:38:51;;;;;;;7.68;3.90;;;;;;;17.33;57.21;103797.75;6258998;22;20042;-87
2023/02/13 07:41:16;;;;;;;5.93;3.58;;;;;;;17.33;57.65;103796.88;6258913;22;20003;-91
2023/02/13 07:43:42;;;;;;;6.45;3.60;;;;;;;17.31;57.34;103801.13;6258474;22;20052;-91
2023/02/13 07:46:08;;;;;;;6.53;3.85;;;;;;;17.30;57.09;103792.44;6233588;22;20098;-89
2023/02/13 07:48:33;;;;;;;7.05;3.65;;;;;;;17.31;57.56;103808.94;6259918;22;20010;-91
2023/02/13 07:51:07;;;;;;;6.95;4.05;;;;;;;17.30;56.95;103800.25;6263178;22;20059;-91
2023/02/13 07:53:32;;;;;;;6.75;4.10;;;;;;;17.30;57.18;103804.59;6260329;22;20014;-92
2023/02/13 07:55:58;;;;;;;6.45;3.55;;;;;;;17.32;57.30;103808.13;6257970;22;20003;-90
2023/02/13 07:58:23;;;;;;;7.35;3.75;;;;;;;17.32;57.08;103810.75;6258180;22;20001;-91
2023/02/13 08:00:48;;;;;;;6.93;3.90;;;;;;;17.32;56.98;103806.41;6261027;22;20007;-91
2023/02/13 08:03:14;;;;;;;5.03;3.55;;;;;;;17.32;57.27;103801.22;6233511;22;20007;-94
2023/02/13 08:05:40;;;;;;;8.60;4.35;;;;;;;17.32;57.07;103805.53;6232611;22;20343;-92
2023/02/13 08:08:05;;;;;;;5.28;3.90;;;;;;;17.32;56.68;103806.41;6256656;22;20007;-83
2023/02/13 08:13:15;;;;;;;5.75;3.72;;;;;;;17.34;56.72;103812.56;6264427;22;20101;-82
2023/02/13 08:15:43;;;;;;;7.38;3.47;;;;;;;17.35;56.96;103810.84;6281882;22;20382;-82
2023/02/13 08:18:08;;;;;;;5.13;3.42;;;;;;;17.35;56.80;103816.94;6281280;22;20007;-82
2023/02/13 08:20:34;;;;;;;4.68;3.40;;;;;;;17.36;56.64;103816.13;6281351;22;20463;-82
2023/02/13 08:23:08;;;;;;;4.85;3.30;;;;;;;17.37;57.03;103817.00;6255921;22;20446;-83
2023/02/13 08:25:34;;;;;;;5.68;3.60;;;;;;;17.37;56.69;103809.19;6256272;22;20041;-82
2023/02/13 08:28:00;;;;;;;5.10;3.58;;;;;;;17.38;56.46;103827.47;6281730;22;20104;-83
2023/02/13 08:30:27;;;;;;;4.63;3.42;;;;;;;17.38;56.56;103814.47;6281409;22;20420;-83
2023/02/13 08:32:53;;;;;;;5.00;3.30;;;;;;;17.39;57.14;103812.75;6281360;22;20022;-84
2023/02/13 08:35:18;;;;;;;4.38;3.15;;;;;;;17.39;56.50;103808.41;6281640;22;20003;-84
2023/02/13 08:37:44;;;;;;;4.32;3.35;;;;;;;17.39;56.32;103803.22;6230151;22;20011;-84
2023/02/13 08:40:09;;;;;;;4.65;3.50;;;;;;;17.40;56.20;103797.19;6231538;22;20049;-85
2023/02/13 08:42:36;;;;;;;4.82;3.50;;;;;;;17.39;56.18;103798.00;6281840;22;20007;-84
2023/02/13 08:45:02;;;;;;;4.30;3.15;;;;;;;17.41;56.92;103801.56;6281754;22;20420;-85
2023/02/13 08:47:27;;;;;;;5.38;3.33;;;;;;;17.42;56.40;103799.84;6282258;22;20026;-85
2023/02/13 08:49:53;;;;;;;4.82;3.40;;;;;;;17.43;56.39;103805.09;6256729;22;20054;-86
2023/02/13 08:52:18;;;;;;;4.85;3.47;;;;;;;17.44;56.48;103800.78;6230970;22;20082;-86
2023/02/13 08:54:43;;;;;;;4.10;3.33;;;;;;;17.44;56.02;103805.97;6256403;22;20412;-86
2023/02/13 08:57:09;;;;;;;3.53;3.15;;;;;;;17.44;56.08;103804.28;6230949;22;20038;-85
2023/02/13 08:59:34;;;;;;;4.55;3.30;;;;;;;17.44;56.10;103804.28;6231025;22;20003;-86
2023/02/13 09:02:00;;;;;;;3.58;3.20;;;;;;;17.45;56.21;103805.16;6255823;22;20003;-85
2023/02/13 09:04:26;;;;;;;4.10;2.97;;;;;;;17.45;55.98;103808.66;6255735;22;20018;-85
2023/02/13 09:06:52;;;;;;;3.92;2.80;;;;;;;17.46;55.98;103812.13;6230655;22;20007;-84
2023/02/13 09:09:18;;;;;;;4.20;3.20;;;;;;;17.47;55.98;103811.31;6231448;22;20056;-85
2023/02/13 09:11:43;;;;;;;4.82;3.22;;;;;;;17.47;55.96;103807.00;6257901;22;20007;-81
2023/02/13 09:14:08;;;;;;;3.42;2.90;;;;;;;17.47;55.95;103804.41;6258307;22;20003;-85
2023/02/13 09:16:34;;;;;;;3.60;3.22;;;;;;;17.48;55.82;103806.19;6232043;22;20011;-85
2023/02/13 09:19:00;;;;;;;3.78;3.00;;;;;;;17.50;56.16;103810.56;6232787;22;20103;-85
2023/02/13 09:21:25;;;;;;;3.63;3.03;;;;;;;17.50;55.92;103807.94;6270902;22;20355;-81
2023/02/13 09:23:51;;;;;;;3.10;2.65;;;;;;;17.51;55.78;103804.50;6245570;22;20498;-84
2023/02/13 09:26:18;;;;;;;3.47;2.75;;;;;;;17.53;55.79;103808.06;6296234;22;19999;-84
2023/02/13 09:28:43;;;;;;;3.70;3.08;;;;;;;17.56;55.98;103808.19;6236204;22;20007;-85
2023/02/13 09:31:17;;;;;;;3.55;2.78;;;;;;;17.57;55.44;103813.47;6234680;22;20033;-85
2023/02/13 09:33:44;;;;;;;4.15;2.92;;;;;;;17.58;55.46;103811.75;6284198;22;20006;-86
2023/02/13 09:36:18;;;;;;;4.32;2.72;;;;;;;17.58;55.41;103809.13;6233904;22;20355;-85
2023/02/13 09:38:44;;;;;;;4.07;3.25;;;;;;;17.59;55.40;103808.28;6283853;22;20023;-85
2023/02/13 09:41:20;;;;;;;3.78;3.10;;;;;;;17.59;55.39;103810.88;6258209;22;20003;-85
2023/02/13 09:43:51;;;;;;;3.15;2.75;;;;;;;17.61;55.33;103804.03;6311131;22;20305;-85
2023/02/13 09:46:24;;;;;;;4.00;3.08;;;;;;;17.61;55.30;103804.91;6283788;22;20014;-84
2023/02/13 09:48:53;;;;;;;3.35;2.88;;;;;;;17.64;55.23;103801.56;6283328;22;20436;-85
2023/02/13 09:51:22;;;;;;;4.53;2.65;;;;;;;17.66;54.98;103807.72;6283136;22;20026;-85
2023/02/13 09:54:00;;;;;;;4.10;3.05;;;;;;;17.69;54.95;103797.41;6282820;22;20057;-85
2023/02/13 09:56:59;;;;;;;3.10;2.60;;;;;;;17.73;54.80;103796.69;6282755;22;20004;-84
2023/02/13 09:59:36;;;;;;;5.78;2.90;;;;;;;17.76;54.60;103802.00;6179433;22;20084;-85
2023/02/13 10:02:42;;;;;;;3.30;2.85;;;;;;;17.80;54.67;103796.06;6282603;22;20003;-85
2023/02/13 10:05:16;;;;;;;4.15;2.80;;;;;;;17.82;54.67;103798.78;6309791;22;20493;-84
2023/02/13 10:08:09;;;;;;;3.25;2.78;;;;;;;17.84;54.53;103797.09;6282816;22;20004;-83
2023/02/13 10:11:07;;;;;;;3.83;2.78;;;;;;;17.84;54.46;103799.72;6227607;22;20011;-82
2023/02/13 10:13:51;;;;;;;3.25;2.67;;;;;;;17.84;54.50;103800.59;6262671;22;20003;-84
2023/02/13 10:16:19;;;;;;;3.63;2.80;;;;;;;17.83;54.70;103797.91;6282674;22;20388;-81
2023/02/13 10:18:50;;;;;;;3.33;2.55;;;;;;;17.81;54.66;103797.84;6282192;22;20011;-82
2023/02/13 10:21:21;;;;;;;2.85;2.55;;;;;;;17.82;54.82;103790.97;6281674;22;20065;-84
2023/02/13 10:23:59;;;;;;;3.40;2.85;;;;;;;17.83;54.73;103785.81;6282469;22;19999;-84
2023/02/13 10:26:41;;;;;;;3.05;2.50;;;;;;;17.84;54.42;103784.09;6282166;22;20003;-83
2023/02/13 10:30:05;;;;;;;3.25;2.67;;;;;;;17.87;54.44;103792.00;6282246;22;20435;-83
2023/02/13 10:32:42;;;;;;;3.03;2.73;;;;;;;17.91;54.41;103788.69;6158979;22;20014;-82
2023/02/13 10:35:19;;;;;;;2.67;2.35;;;;;;;17.95;54.29;103794.91;6282787;22;20244;-83
2023/02/13 10:37:49;;;;;;;3.30;2.80;;;;;;;17.94;54.34;103796.59;6283057;22;20023;-82
2023/02/13 10:40:16;;;;;;;3.10;2.50;;;;;;;17.94;54.19;103795.72;6310438;22;20056;-81
2023/02/13 10:43:02;;;;;;;3.40;2.70;;;;;;;17.94;54.42;103795.72;6282466;22;20059;-82
2023/02/13 10:46:02;;;;;;;2.90;2.42;;;;;;;17.94;54.22;103791.38;6282180;22;20000;-84
2023/02/13 10:48:59;;;;;;;3.53;2.80;;;;;;;17.92;54.44;103786.94;6282294;22;20056;-81
2023/02/13 10:51:52;;;;;;;2.60;2.35;;;;;;;17.93;54.23;103791.34;6282297;22;20006;-81
2023/02/13 10:54:50;;;;;;;3.33;2.70;;;;;;;17.94;54.08;103795.72;6282329;22;20052;-81
2023/02/13 10:57:27;;;;;;;3.05;2.47;;;;;;;17.96;54.28;103786.22;6282450;22;20015;-81
2023/02/13 11:00:23;;;;;;;2.67;2.40;;;;;;;17.97;54.16;103783.69;6282151;22;20026;-84
2023/02/13 11:02:49;;;;;;;2.80;2.50;;;;;;;17.97;54.07;103775.88;6281849;22;20010;-83
2023/02/13 11:05:22;;;;;;;3.13;2.60;;;;;;;17.97;54.08;103778.47;6256507;22;20007;-82
2023/02/13 11:07:48;;;;;;;2.90;2.55;;;;;;;17.95;53.93;103774.94;6282035;22;20010;-82
2023/02/13 11:10:23;;;;;;;3.42;2.53;;;;;;;17.94;53.95;103770.53;6256779;22;20019;-84
2023/02/13 11:12:50;;;;;;;3.25;2.50;;;;;;;17.96;54.01;103774.09;6282230;22;20000;-82
2023/02/13 11:15:24;;;;;;;3.50;2.65;;;;;;;17.96;54.16;103763.66;6231154;22;20006;-82
2023/02/13 11:17:52;;;;;;;3.08;2.67;;;;;;;17.99;53.96;103758.56;6281985;22;20410;-82
2023/02/13 11:20:32;;;;;;;2.88;2.55;;;;;;;18.05;53.90;103757.88;6309581;22;20387;-80
2023/02/13 11:23:25;;;;;;;3.13;2.60;;;;;;;18.05;53.72;103756.19;6309980;22;20030;-84
2023/02/13 11:25:56;;;;;;;3.33;2.57;;;;;;;18.02;53.86;103756.06;6281788;22;20003;-82
2023/02/13 11:28:22;;;;;;;2.78;2.30;;;;;;;18.01;53.71;103750.81;6281988;22;20226;-81
2023/02/13 11:30:48;;;;;;;2.97;2.45;;;;;;;18.01;53.93;103759.53;6281812;22;20126;-82
2023/02/13 11:33:16;;;;;;;2.92;2.30;;;;;;;18.00;53.96;103744.69;6255987;22;20015;-82
2023/02/13 11:35:42;;;;;;;2.72;2.25;;;;;;;18.00;53.88;103747.31;6281773;22;20374;-81
2023/02/13 11:38:14;;;;;;;2.95;2.47;;;;;;;18.03;53.86;103744.81;6309060;22;20041;-80
2023/02/13 11:40:43;;;;;;;3.15;2.55;;;;;;;18.04;53.68;103737.88;6309108;22;20003;-82
2023/02/13 11:43:35;;;;;;;2.65;2.30;;;;;;;18.03;53.60;103743.91;6281497;22;20369;-81
2023/02/13 11:46:08;;;;;;;2.90;2.00;;;;;;;18.01;53.94;103741.28;6282194;22;20011;-85
2023/02/13 11:48:34;;;;;;;2.58;2.33;;;;;;;17.99;54.06;103736.84;6281886;22;20010;-86
2023/02/13 11:51:00;;;;;;;2.38;2.10;;;;;;;17.99;53.82;103736.84;6256464;22;20011;-84
2023/02/13 11:53:38;;;;;;;2.50;2.30;;;;;;;18.00;53.87;103733.41;6257444;22;20003;-83
2023/02/13 11:56:16;;;;;;;4.22;2.45;;;;;;;18.04;53.48;103732.69;6287209;22;20074;-82
2023/02/13 11:58:42;;;;;;;2.70;2.35;;;;;;;18.09;53.50;103728.50;6294282;22;20004;-80
2023/02/13 12:01:07;;;;;;;2.30;2.05;;;;;;;18.09;53.53;103725.88;6267531;22;20049;-83
2023/02/13 12:03:32;;;;;;;2.80;2.33;;;;;;;18.10;53.56;103722.47;6290678;22;20133;-84
2023/02/13 12:05:59;;;;;;;3.03;2.60;;;;;;;18.11;53.55;103721.63;6232966;22;20018;-84
2023/02/13 12:08:25;;;;;;;3.28;2.70;;;;;;;18.14;53.28;103719.13;6282578;22;20011;-84
2023/02/13 12:10:51;;;;;;;2.45;2.17;;;;;;;18.15;53.31;103710.47;6310005;22;20443;-84
2023/02/13 12:13:28;;;;;;;3.13;2.45;;;;;;;18.12;53.38;103717.28;6282488;22;20007;-85
2023/02/13 12:16:29;;;;;;;2.85;2.55;;;;;;;18.11;53.58;103715.53;6282331;22;19999;-84
2023/02/13 12:19:01;;;;;;;3.03;2.72;;;;;;;18.08;53.76;103708.50;6264495;22;20057;-90
2023/02/13 12:21:44;;;;;;;2.97;2.50;;;;;;;18.06;53.63;103703.22;6286619;22;19999;-92
2023/02/13 12:24:29;;;;;;;;;;;;;;;18.11;53.40;103699.88;6287298;22;20156;-93